Olivesburg, Ohio
Current Conditions -  °F | °C
As of 5:52 PM on Thursday 20 Nov 2014 (Local Time) from KMFD Reporting Station
Overcast Overcast  
Wind Chill: 12°   Ceiling: 4200
Heat Index: 23°   Visibility: 10mi
Dew Point: 12°   Wind: 10mph
Humidity: 63%   Direction: 240°WSW
Pressure: 30.05"   Gusts: NA
Location:  40.8738°N, 82.3197°W
Report Text: KMFD 202252Z 24009KT 10SM OVC042 M05/M11 A3005 RMK AO2 SLP195 T10501111
Loading
Personal Weather Stations






























Interactive Weather Map New forecast layout! Learn more

10-Day Weather Forecast

Advertisements
Track Severe Weather on mobile